OCS2110 SBPA-SBRF
Flight info
| Callsign | OCS2110 |
|---|---|
| Flight time | N/A |
| Altitude | 39000 |
| Route | ANLER UM540 KOXAG DCT ILKOK UZ23 ANBEX |
| Aircraft | A339/H-SADE1E2E3GHIJ3J5M1P2RWXY/LB2D1 |
Departure
| Time | 2026-05-05 13:16 |
|---|---|
| Airport | Porto Alegre-Salgado Filho International Airport (SBPA) |
Arrival
| Time | N/A |
|---|---|
| Airport | Recife/Guararapes - Gilberto Freyre International Airport (SBRF) |
| Time | Latitude | Longitude | Altitude | Speed | Heading |
|---|---|---|---|---|---|
| 2026-05-05 13:09 | -29.99106 | -51.18108 | 25 ft | 0 kts | 296° |
| 2026-05-05 13:11 | -29.99113 | -51.18092 | 30 ft | 3 kts | 296° |
| 2026-05-05 13:12 | -29.99123 | -51.18071 | 30 ft | 3 kts | 286° |
| 2026-05-05 13:12 | -29.99128 | -51.18047 | 30 ft | 3 kts | 243° |
| 2026-05-05 13:12 | -29.99119 | -51.18029 | 30 ft | 0 kts | 207° |
| 2026-05-05 13:14 | -29.99134 | -51.18034 | 30 ft | 12 kts | 200° |
| 2026-05-05 13:14 | -29.99227 | -51.18115 | 29 ft | 18 kts | 233° |
| 2026-05-05 13:14 | -29.99302 | -51.18197 | 27 ft | 9 kts | 207° |
| 2026-05-05 13:15 | -29.99365 | -51.18233 | 27 ft | 11 kts | 207° |
| 2026-05-05 13:15 | -29.99431 | -51.18257 | 30 ft | 8 kts | 169° |
| 2026-05-05 13:15 | -29.99440 | -51.18221 | 27 ft | 4 kts | 92° |
| 2026-05-05 13:15 | -29.99444 | -51.18009 | 27 ft | 62 kts | 91° |
| 2026-05-05 13:16 | -29.99459 | -51.17216 | 28 ft | 133 kts | 91° |
| 2026-05-05 13:16 | -29.99484 | -51.15937 | 50 ft | 182 kts | 91° |
| 2026-05-05 13:16 | -29.99495 | -51.14480 | 638 ft | 180 kts | 88° |
| 2026-05-05 13:16 | -29.99490 | -51.13073 | 1438 ft | 169 kts | 89° |
| 2026-05-05 13:17 | -29.99538 | -51.11714 | 2270 ft | 172 kts | 90° |
| 2026-05-05 13:17 | -29.99588 | -51.10305 | 3079 ft | 178 kts | 90° |
| 2026-05-05 13:17 | -29.99623 | -51.08779 | 3436 ft | 215 kts | 89° |
| 2026-05-05 13:17 | -29.99610 | -51.06909 | 3676 ft | 246 kts | 89° |
| 2026-05-05 13:18 | -29.99643 | -51.04856 | 4075 ft | 266 kts | 90° |
| 2026-05-05 13:18 | -29.99703 | -51.02652 | 4437 ft | 284 kts | 91° |
| 2026-05-05 13:18 | -29.99757 | -51.00348 | 5147 ft | 288 kts | 90° |
| 2026-05-05 13:18 | -29.99800 | -50.98025 | 5871 ft | 292 kts | 90° |
| 2026-05-05 13:19 | -29.99536 | -50.95703 | 6500 ft | 294 kts | 69° |
| 2026-05-05 13:19 | -29.98521 | -50.93688 | 7142 ft | 291 kts | 44° |
| 2026-05-05 13:19 | -29.96951 | -50.92246 | 7782 ft | 289 kts | 28° |
| 2026-05-05 13:19 | -29.95187 | -50.91114 | 8420 ft | 291 kts | 24° |
| 2026-05-05 13:20 | -29.93390 | -50.89995 | 9075 ft | 295 kts | 25° |
| 2026-05-05 13:20 | -29.91599 | -50.88789 | 9516 ft | 301 kts | 27° |
| 2026-05-05 13:20 | -29.89837 | -50.87507 | 9622 ft | 300 kts | 29° |
| 2026-05-05 13:20 | -29.88095 | -50.86180 | 9736 ft | 301 kts | 30° |
| 2026-05-05 13:21 | -29.86347 | -50.84832 | 9852 ft | 302 kts | 30° |
| 2026-05-05 13:21 | -29.84606 | -50.83485 | 9962 ft | 303 kts | 30° |
| 2026-05-05 13:21 | -29.82841 | -50.82122 | 10200 ft | 311 kts | 30° |
| 2026-05-05 13:21 | -29.80979 | -50.80693 | 10366 ft | 331 kts | 30° |
| 2026-05-05 13:22 | -29.79197 | -50.79327 | 10547 ft | 348 kts | 30° |
| 2026-05-05 13:22 | -29.77162 | -50.77757 | 11034 ft | 353 kts | 31° |
| 2026-05-05 13:22 | -29.75115 | -50.76170 | 11604 ft | 357 kts | 31° |
| 2026-05-05 13:22 | -29.73047 | -50.74563 | 12182 ft | 361 kts | 31° |
| 2026-05-05 13:23 | -29.70951 | -50.72939 | 12749 ft | 364 kts | 31° |
| 2026-05-05 13:23 | -29.68837 | -50.71304 | 13330 ft | 368 kts | 31° |
| 2026-05-05 13:23 | -29.66707 | -50.69656 | 13898 ft | 371 kts | 31° |
| 2026-05-05 13:23 | -29.64576 | -50.68012 | 14408 ft | 375 kts | 31° |
| 2026-05-05 13:24 | -29.62408 | -50.66340 | 14922 ft | 377 kts | 31° |
| 2026-05-05 13:24 | -29.60210 | -50.64649 | 15382 ft | 382 kts | 31° |
| 2026-05-05 13:24 | -29.58013 | -50.62960 | 15901 ft | 385 kts | 31° |
| 2026-05-05 13:24 | -29.55785 | -50.61244 | 16405 ft | 388 kts | 31° |
| 2026-05-05 13:25 | -29.53531 | -50.59509 | 16838 ft | 392 kts | 31° |
| 2026-05-05 13:25 | -29.51255 | -50.57758 | 17321 ft | 395 kts | 31° |
| 2026-05-05 13:25 | -29.48962 | -50.55996 | 17801 ft | 398 kts | 31° |
| 2026-05-05 13:25 | -29.46754 | -50.54050 | 18228 ft | 404 kts | 39° |
| 2026-05-05 13:26 | -29.44633 | -50.51914 | 18670 ft | 407 kts | 39° |
| 2026-05-05 13:26 | -29.42494 | -50.49772 | 19086 ft | 411 kts | 39° |
| 2026-05-05 13:26 | -29.40329 | -50.47616 | 19517 ft | 413 kts | 38° |
| 2026-05-05 13:26 | -29.38149 | -50.45454 | 19968 ft | 416 kts | 38° |
| 2026-05-05 13:27 | -29.35948 | -50.43274 | 20393 ft | 420 kts | 38° |
| 2026-05-05 13:27 | -29.33757 | -50.41107 | 20829 ft | 423 kts | 38° |
| 2026-05-05 13:27 | -29.31521 | -50.38895 | 21243 ft | 427 kts | 38° |
| 2026-05-05 13:27 | -29.29236 | -50.36636 | 21680 ft | 430 kts | 38° |
| 2026-05-05 13:28 | -29.26903 | -50.34482 | 22132 ft | 431 kts | 33° |
| 2026-05-05 13:28 | -29.24515 | -50.32455 | 22549 ft | 435 kts | 33° |
| 2026-05-05 13:28 | -29.22043 | -50.30354 | 22984 ft | 438 kts | 33° |
| 2026-05-05 13:28 | -29.19589 | -50.28265 | 23452 ft | 442 kts | 33° |
| 2026-05-05 13:29 | -29.17171 | -50.26203 | 23883 ft | 445 kts | 33° |
| 2026-05-05 13:29 | -29.14669 | -50.24069 | 24295 ft | 448 kts | 33° |
| 2026-05-05 13:29 | -29.12192 | -50.21960 | 24722 ft | 450 kts | 33° |
| 2026-05-05 13:29 | -29.09637 | -50.19781 | 25122 ft | 453 kts | 33° |
| 2026-05-05 13:30 | -29.07139 | -50.17653 | 25520 ft | 456 kts | 33° |
| 2026-05-05 13:30 | -29.04587 | -50.15481 | 25934 ft | 459 kts | 33° |
| 2026-05-05 13:30 | -29.02021 | -50.13297 | 26330 ft | 461 kts | 33° |
| 2026-05-05 13:30 | -28.99438 | -50.11100 | 26701 ft | 464 kts | 33° |
| 2026-05-05 13:31 | -28.96838 | -50.08891 | 27103 ft | 467 kts | 33° |
| 2026-05-05 13:31 | -28.94229 | -50.06678 | 27477 ft | 470 kts | 33° |
| 2026-05-05 13:31 | -28.91596 | -50.04446 | 27857 ft | 472 kts | 33° |
| 2026-05-05 13:31 | -28.88944 | -50.02197 | 28240 ft | 475 kts | 33° |
| 2026-05-05 13:32 | -28.86289 | -49.99948 | 28591 ft | 478 kts | 33° |
| 2026-05-05 13:32 | -28.83612 | -49.97682 | 28951 ft | 480 kts | 33° |
| 2026-05-05 13:32 | -28.80921 | -49.95407 | 29301 ft | 482 kts | 33° |
| 2026-05-05 13:32 | -28.78222 | -49.93124 | 29680 ft | 484 kts | 33° |
| 2026-05-05 13:33 | -28.75507 | -49.90826 | 29942 ft | 488 kts | 33° |
| 2026-05-05 13:33 | -28.72777 | -49.88514 | 30288 ft | 490 kts | 33° |
| 2026-05-05 13:33 | -28.70026 | -49.86194 | 30629 ft | 492 kts | 33° |
| 2026-05-05 13:33 | -28.67263 | -49.83868 | 30884 ft | 496 kts | 33° |
| 2026-05-05 13:34 | -28.64477 | -49.81521 | 31159 ft | 499 kts | 33° |
| 2026-05-05 13:34 | -28.61676 | -49.79160 | 31397 ft | 503 kts | 33° |
| 2026-05-05 13:34 | -28.58865 | -49.76789 | 31759 ft | 504 kts | 33° |
| 2026-05-05 13:34 | -28.56047 | -49.74414 | 32006 ft | 507 kts | 33° |
| 2026-05-05 13:35 | -28.53198 | -49.72017 | 32303 ft | 509 kts | 33° |
| 2026-05-05 13:35 | -28.50341 | -49.69614 | 32593 ft | 512 kts | 33° |
| 2026-05-05 13:35 | -28.47475 | -49.67207 | 32839 ft | 515 kts | 33° |
| 2026-05-05 13:35 | -28.44589 | -49.64784 | 33055 ft | 517 kts | 33° |
| 2026-05-05 13:36 | -28.41690 | -49.62353 | 33254 ft | 519 kts | 34° |
| 2026-05-05 13:36 | -28.38779 | -49.59912 | 33458 ft | 521 kts | 34° |
| 2026-05-05 13:36 | -28.35855 | -49.57463 | 33626 ft | 522 kts | 34° |
| 2026-05-05 13:36 | -28.32933 | -49.55018 | 33806 ft | 523 kts | 34° |
| 2026-05-05 13:37 | -28.30001 | -49.52566 | 34009 ft | 524 kts | 34° |
| 2026-05-05 13:37 | -28.27054 | -49.50106 | 34223 ft | 525 kts | 33° |
| 2026-05-05 13:37 | -28.24125 | -49.47660 | 34436 ft | 523 kts | 34° |
| 2026-05-05 13:37 | -28.21198 | -49.45216 | 34636 ft | 523 kts | 34° |
| 2026-05-05 13:38 | -28.18265 | -49.42769 | 34763 ft | 524 kts | 34° |
| 2026-05-05 13:38 | -28.16317 | -49.41146 | 34890 ft | 524 kts | 34° |
| 2026-05-05 13:38 | -28.13385 | -49.38703 | 35113 ft | 523 kts | 34° |
| 2026-05-05 13:38 | -28.10460 | -49.36267 | 35326 ft | 522 kts | 34° |
| 2026-05-05 13:39 | -28.07498 | -49.33800 | 35469 ft | 523 kts | 34° |
| 2026-05-05 13:39 | -28.04624 | -49.31368 | 35636 ft | 523 kts | 34° |
| 2026-05-05 13:39 | -28.01723 | -49.28889 | 35828 ft | 522 kts | 34° |
| 2026-05-05 13:39 | -27.98825 | -49.26413 | 36000 ft | 522 kts | 34° |
| 2026-05-05 13:40 | -27.95924 | -49.23939 | 36165 ft | 522 kts | 34° |
| 2026-05-05 13:40 | -27.93022 | -49.21470 | 36350 ft | 522 kts | 34° |
| 2026-05-05 13:40 | -27.90121 | -49.19005 | 36516 ft | 522 kts | 34° |
| 2026-05-05 13:40 | -27.87218 | -49.16546 | 36703 ft | 521 kts | 34° |
| 2026-05-05 13:41 | -27.84281 | -49.14150 | 36870 ft | 520 kts | 32° |
| 2026-05-05 13:41 | -27.81283 | -49.11763 | 37060 ft | 520 kts | 32° |
| 2026-05-05 13:41 | -27.78322 | -49.09414 | 37232 ft | 520 kts | 32° |
| 2026-05-05 13:41 | -27.75406 | -49.07091 | 37396 ft | 521 kts | 32° |
| 2026-05-05 13:42 | -27.72447 | -49.04728 | 37576 ft | 520 kts | 32° |
| 2026-05-05 13:42 | -27.69500 | -49.02367 | 37760 ft | 519 kts | 33° |
| 2026-05-05 13:42 | -27.66569 | -48.99983 | 37911 ft | 519 kts | 33° |
| 2026-05-05 13:42 | -27.63652 | -48.97576 | 38059 ft | 520 kts | 33° |
| 2026-05-05 13:43 | -27.60745 | -48.95174 | 38227 ft | 519 kts | 33° |
| 2026-05-05 13:43 | -27.57830 | -48.92768 | 38353 ft | 519 kts | 33° |
| 2026-05-05 13:43 | -27.54916 | -48.90366 | 38512 ft | 519 kts | 33° |
| 2026-05-05 13:43 | -27.52003 | -48.87969 | 38663 ft | 518 kts | 33° |
| 2026-05-05 13:44 | -27.49089 | -48.85575 | 38782 ft | 519 kts | 33° |
| 2026-05-05 13:44 | -27.46172 | -48.83182 | 38904 ft | 518 kts | 33° |
| 2026-05-05 13:44 | -27.40341 | -48.78401 | 39097 ft | 518 kts | 33° |
| 2026-05-05 13:45 | -27.34502 | -48.73618 | 39189 ft | 519 kts | 33° |
| 2026-05-05 13:45 | -27.28664 | -48.68847 | 39189 ft | 519 kts | 33° |
| 2026-05-05 13:46 | -27.22839 | -48.64051 | 39187 ft | 519 kts | 34° |
| 2026-05-05 13:46 | -27.17068 | -48.59173 | 39188 ft | 519 kts | 34° |
| 2026-05-05 13:47 | -27.11220 | -48.54415 | 39189 ft | 519 kts | 33° |
| 2026-05-05 13:47 | -27.05348 | -48.49697 | 39190 ft | 519 kts | 33° |
| 2026-05-05 13:48 | -26.99480 | -48.44971 | 39186 ft | 519 kts | 33° |
| 2026-05-05 13:48 | -26.93614 | -48.40244 | 39188 ft | 519 kts | 33° |
| 2026-05-05 13:49 | -26.87745 | -48.35520 | 39187 ft | 520 kts | 33° |
| 2026-05-05 13:49 | -26.81873 | -48.30800 | 39190 ft | 520 kts | 33° |
| 2026-05-05 13:50 | -26.76000 | -48.26086 | 39192 ft | 519 kts | 33° |
| 2026-05-05 13:50 | -26.70126 | -48.21375 | 39191 ft | 520 kts | 33° |
| 2026-05-05 13:51 | -26.64260 | -48.16651 | 39192 ft | 519 kts | 33° |
| 2026-05-05 13:51 | -26.58396 | -48.11931 | 39191 ft | 520 kts | 33° |
| 2026-05-05 13:52 | -26.52530 | -48.07219 | 39193 ft | 519 kts | 33° |
| 2026-05-05 13:52 | -26.46665 | -48.02514 | 39195 ft | 519 kts | 33° |
| 2026-05-05 13:53 | -26.40801 | -47.97816 | 39194 ft | 519 kts | 33° |
| 2026-05-05 13:53 | -26.34943 | -47.93131 | 39195 ft | 518 kts | 33° |
| 2026-05-05 13:54 | -26.29079 | -47.88444 | 39195 ft | 519 kts | 33° |
| 2026-05-05 13:54 | -26.23216 | -47.83764 | 39194 ft | 518 kts | 33° |
| 2026-05-05 13:55 | -26.17392 | -47.79121 | 39197 ft | 518 kts | 33° |
| 2026-05-05 13:55 | -26.11529 | -47.74453 | 39198 ft | 518 kts | 33° |
| 2026-05-05 13:56 | -26.05663 | -47.69791 | 39196 ft | 518 kts | 33° |
| 2026-05-05 13:56 | -25.99794 | -47.65130 | 39194 ft | 518 kts | 33° |
| 2026-05-05 13:57 | -25.93924 | -47.60475 | 39196 ft | 518 kts | 33° |
| 2026-05-05 13:57 | -25.88054 | -47.55826 | 39194 ft | 518 kts | 33° |
| 2026-05-05 13:58 | -25.82180 | -47.51179 | 39195 ft | 518 kts | 33° |
| 2026-05-05 13:58 | -25.76303 | -47.46536 | 39194 ft | 519 kts | 33° |
| 2026-05-05 13:59 | -25.67488 | -47.39582 | 39197 ft | 519 kts | 33° |
| 2026-05-05 14:00 | -25.59611 | -47.33380 | 39198 ft | 519 kts | 33° |
| 2026-05-05 14:00 | -25.52766 | -47.27998 | 39196 ft | 519 kts | 33° |
| 2026-05-05 14:01 | -25.46872 | -47.23370 | 39197 ft | 520 kts | 33° |
| 2026-05-05 14:01 | -25.40993 | -47.18759 | 39196 ft | 520 kts | 33° |
| 2026-05-05 14:02 | -25.35156 | -47.14187 | 39199 ft | 520 kts | 33° |
| 2026-05-05 14:02 | -25.29239 | -47.09558 | 39195 ft | 520 kts | 33° |
| 2026-05-05 14:03 | -25.23328 | -47.04939 | 39196 ft | 520 kts | 33° |
| 2026-05-05 14:03 | -25.17411 | -47.00421 | 39206 ft | 519 kts | 29° |
| 2026-05-05 14:04 | -25.11027 | -46.96842 | 39203 ft | 515 kts | 18° |
| 2026-05-05 14:04 | -25.04260 | -46.94353 | 39198 ft | 512 kts | 13° |
| 2026-05-05 14:05 | -24.97472 | -46.91992 | 39198 ft | 512 kts | 14° |
| 2026-05-05 14:05 | -24.90677 | -46.89609 | 39196 ft | 512 kts | 14° |
| 2026-05-05 14:06 | -24.83881 | -46.87229 | 39198 ft | 513 kts | 14° |
| 2026-05-05 14:06 | -24.77079 | -46.84850 | 39197 ft | 513 kts | 14° |
| 2026-05-05 14:07 | -24.70274 | -46.82473 | 39200 ft | 513 kts | 14° |
| 2026-05-05 14:07 | -24.63461 | -46.80096 | 39194 ft | 514 kts | 14° |
| 2026-05-05 14:08 | -24.56646 | -46.77721 | 39196 ft | 514 kts | 14° |
| 2026-05-05 14:08 | -24.49829 | -46.75348 | 39192 ft | 514 kts | 14° |
| 2026-05-05 14:09 | -24.43008 | -46.72976 | 39193 ft | 514 kts | 13° |
| 2026-05-05 14:09 | -24.36196 | -46.70610 | 39195 ft | 514 kts | 13° |
| 2026-05-05 14:10 | -24.29375 | -46.68244 | 39192 ft | 514 kts | 14° |
| 2026-05-05 14:10 | -24.22553 | -46.65880 | 39199 ft | 514 kts | 13° |
| 2026-05-05 14:11 | -24.15729 | -46.63518 | 39200 ft | 514 kts | 13° |
| 2026-05-05 14:11 | -24.08903 | -46.61158 | 39199 ft | 514 kts | 13° |
| 2026-05-05 14:12 | -24.02082 | -46.58802 | 39194 ft | 513 kts | 13° |
| 2026-05-05 14:12 | -23.95256 | -46.56449 | 39199 ft | 516 kts | 13° |
| 2026-05-05 14:13 | -23.88418 | -46.54092 | 39198 ft | 514 kts | 13° |
| 2026-05-05 14:13 | -23.81584 | -46.51739 | 39271 ft | 515 kts | 13° |
| 2026-05-05 14:14 | -23.74751 | -46.49390 | 39284 ft | 515 kts | 13° |
| 2026-05-05 14:14 | -23.67907 | -46.47039 | 39282 ft | 516 kts | 13° |
| 2026-05-05 14:15 | -23.61103 | -46.44705 | 39271 ft | 516 kts | 13° |
| 2026-05-05 14:15 | -23.54232 | -46.42441 | 39286 ft | 515 kts | 11° |
| 2026-05-05 14:16 | -23.47303 | -46.40471 | 39293 ft | 515 kts | 10° |
| 2026-05-05 14:16 | -23.40377 | -46.38480 | 39290 ft | 515 kts | 11° |
| 2026-05-05 14:17 | -23.33409 | -46.36730 | 39283 ft | 514 kts | 7° |
| 2026-05-05 14:17 | -23.26418 | -46.35138 | 39274 ft | 513 kts | 8° |
| 2026-05-05 14:18 | -23.19428 | -46.33496 | 39259 ft | 514 kts | 8° |
| 2026-05-05 14:18 | -23.12449 | -46.31836 | 39240 ft | 514 kts | 8° |
| 2026-05-05 14:19 | -23.05453 | -46.30171 | 39242 ft | 514 kts | 8° |
| 2026-05-05 14:19 | -22.98464 | -46.28511 | 39242 ft | 514 kts | 8° |
| 2026-05-05 14:20 | -22.91462 | -46.26850 | 39248 ft | 515 kts | 8° |
| 2026-05-05 14:20 | -22.84475 | -46.25196 | 39257 ft | 514 kts | 8° |
| 2026-05-05 14:21 | -22.77554 | -46.23142 | 39255 ft | 520 kts | 18° |
| 2026-05-05 14:21 | -22.72116 | -46.20313 | 39257 ft | 524 kts | 28° |
| 2026-05-05 14:22 | -22.66167 | -46.15722 | 39261 ft | 526 kts | 38° |
| 2026-05-05 14:22 | -22.60526 | -46.10653 | 39264 ft | 527 kts | 39° |
| 2026-05-05 14:23 | -22.54882 | -46.05597 | 39274 ft | 526 kts | 38° |
| 2026-05-05 14:23 | -22.49219 | -46.00589 | 39267 ft | 526 kts | 38° |
| 2026-05-05 14:24 | -22.43548 | -45.95592 | 39267 ft | 526 kts | 38° |
| 2026-05-05 14:24 | -22.37872 | -45.90596 | 39267 ft | 526 kts | 38° |
| 2026-05-05 14:25 | -22.32199 | -45.85607 | 39261 ft | 526 kts | 38° |
| 2026-05-05 14:25 | -22.26554 | -45.80653 | 39263 ft | 526 kts | 37° |
| 2026-05-05 14:26 | -22.20839 | -45.75716 | 39259 ft | 527 kts | 37° |
| 2026-05-05 14:26 | -22.15127 | -45.70791 | 39256 ft | 527 kts | 37° |
| 2026-05-05 14:27 | -22.09397 | -45.65850 | 39258 ft | 527 kts | 37° |
| 2026-05-05 14:27 | -22.03680 | -45.60922 | 39256 ft | 527 kts | 37° |
| 2026-05-05 14:28 | -21.97953 | -45.55990 | 39254 ft | 526 kts | 37° |
| 2026-05-05 14:28 | -21.92217 | -45.51058 | 39249 ft | 527 kts | 37° |
| 2026-05-05 14:29 | -21.86482 | -45.46130 | 39249 ft | 527 kts | 37° |
| 2026-05-05 14:29 | -21.80749 | -45.41210 | 39252 ft | 527 kts | 37° |
| 2026-05-05 14:30 | -21.75019 | -45.36297 | 39250 ft | 527 kts | 37° |
| 2026-05-05 14:30 | -21.69280 | -45.31384 | 39248 ft | 527 kts | 37° |
| 2026-05-05 14:31 | -21.63548 | -45.26480 | 39251 ft | 526 kts | 37° |
| 2026-05-05 14:31 | -21.57815 | -45.21579 | 39250 ft | 527 kts | 37° |
| 2026-05-05 14:32 | -21.52079 | -45.16682 | 39244 ft | 526 kts | 37° |
| 2026-05-05 14:32 | -21.46353 | -45.11797 | 39254 ft | 526 kts | 37° |
| 2026-05-05 14:33 | -21.40629 | -45.06921 | 39249 ft | 525 kts | 37° |
| 2026-05-05 14:33 | -21.34901 | -45.02047 | 39249 ft | 525 kts | 37° |
| 2026-05-05 14:34 | -21.29175 | -44.97176 | 39259 ft | 525 kts | 37° |
| 2026-05-05 14:34 | -21.23449 | -44.92312 | 39244 ft | 525 kts | 37° |
| 2026-05-05 14:35 | -21.17722 | -44.87453 | 39238 ft | 524 kts | 37° |
| 2026-05-05 14:35 | -21.12001 | -44.82603 | 39264 ft | 524 kts | 37° |
| 2026-05-05 14:36 | -21.06273 | -44.77753 | 39262 ft | 524 kts | 37° |
| 2026-05-05 14:36 | -21.00451 | -44.73065 | 39254 ft | 524 kts | 33° |
| 2026-05-05 14:37 | -20.94483 | -44.68605 | 39250 ft | 523 kts | 33° |
| 2026-05-05 14:37 | -20.88536 | -44.64109 | 39233 ft | 523 kts | 33° |
| 2026-05-05 14:38 | -20.82649 | -44.59625 | 39237 ft | 523 kts | 33° |
| 2026-05-05 14:38 | -20.76727 | -44.55110 | 39247 ft | 523 kts | 33° |
| 2026-05-05 14:39 | -20.70802 | -44.50595 | 39244 ft | 523 kts | 33° |
| 2026-05-05 14:39 | -20.64877 | -44.46086 | 39245 ft | 523 kts | 33° |
| 2026-05-05 14:40 | -20.58953 | -44.41581 | 39245 ft | 523 kts | 33° |
| 2026-05-05 14:40 | -20.53026 | -44.37079 | 39245 ft | 523 kts | 33° |
| 2026-05-05 14:41 | -20.47095 | -44.32578 | 39245 ft | 523 kts | 33° |
| 2026-05-05 14:41 | -20.41177 | -44.28058 | 39241 ft | 524 kts | 34° |
| 2026-05-05 14:42 | -20.35344 | -44.23401 | 39243 ft | 524 kts | 35° |
| 2026-05-05 14:42 | -20.29518 | -44.18751 | 39245 ft | 523 kts | 34° |
| 2026-05-05 14:43 | -20.23676 | -44.14119 | 39245 ft | 523 kts | 34° |
| 2026-05-05 14:43 | -20.17837 | -44.09498 | 39242 ft | 523 kts | 34° |
| 2026-05-05 14:44 | -20.11994 | -44.04880 | 39254 ft | 523 kts | 34° |
| 2026-05-05 14:44 | -20.06146 | -44.00264 | 39271 ft | 523 kts | 34° |
| 2026-05-05 14:45 | -20.00336 | -43.95692 | 39277 ft | 523 kts | 34° |
| 2026-05-05 14:45 | -19.94478 | -43.91087 | 39287 ft | 524 kts | 34° |
| 2026-05-05 14:46 | -19.88620 | -43.86484 | 39292 ft | 523 kts | 34° |
| 2026-05-05 14:46 | -19.82739 | -43.81928 | 39286 ft | 523 kts | 32° |
| 2026-05-05 14:47 | -19.76716 | -43.77612 | 39280 ft | 522 kts | 31° |
| 2026-05-05 14:47 | -19.70694 | -43.73302 | 39279 ft | 523 kts | 32° |
| 2026-05-05 14:48 | -19.64690 | -43.68969 | 39271 ft | 521 kts | 32° |
| 2026-05-05 14:48 | -19.58688 | -43.64630 | 39259 ft | 523 kts | 32° |
| 2026-05-05 14:49 | -19.52687 | -43.60296 | 39248 ft | 521 kts | 32° |
| 2026-05-05 14:49 | -19.46686 | -43.55967 | 39237 ft | 522 kts | 32° |
| 2026-05-05 14:50 | -19.40678 | -43.51635 | 39241 ft | 522 kts | 32° |
| 2026-05-05 14:50 | -19.34663 | -43.47304 | 39245 ft | 522 kts | 32° |
| 2026-05-05 14:51 | -19.28677 | -43.42947 | 39243 ft | 522 kts | 34° |
| 2026-05-05 14:51 | -19.22877 | -43.38291 | 39235 ft | 523 kts | 35° |
| 2026-05-05 14:52 | -19.17092 | -43.33625 | 39237 ft | 523 kts | 35° |
| 2026-05-05 14:52 | -19.11285 | -43.29003 | 39236 ft | 522 kts | 34° |
| 2026-05-05 14:53 | -19.05512 | -43.24428 | 39235 ft | 522 kts | 34° |
| 2026-05-05 14:53 | -18.99695 | -43.19824 | 39232 ft | 522 kts | 34° |
| 2026-05-05 14:54 | -18.93885 | -43.15227 | 39229 ft | 521 kts | 34° |
| 2026-05-05 14:54 | -18.88103 | -43.10655 | 39227 ft | 522 kts | 34° |
| 2026-05-05 14:55 | -18.82294 | -43.06066 | 39228 ft | 521 kts | 34° |
| 2026-05-05 14:55 | -18.76520 | -43.01508 | 39226 ft | 521 kts | 34° |
| 2026-05-05 14:56 | -18.70709 | -42.96917 | 39226 ft | 521 kts | 34° |
| 2026-05-05 14:56 | -18.65062 | -42.92459 | 39231 ft | 521 kts | 34° |
| 2026-05-05 14:57 | -18.59297 | -42.87914 | 39231 ft | 521 kts | 34° |
| 2026-05-05 14:57 | -18.53485 | -42.83335 | 39229 ft | 521 kts | 34° |
| 2026-05-05 14:58 | -18.47741 | -42.78819 | 39227 ft | 522 kts | 34° |
| 2026-05-05 14:58 | -18.41907 | -42.74238 | 39225 ft | 521 kts | 34° |
| 2026-05-05 14:59 | -18.36080 | -42.69665 | 39228 ft | 521 kts | 34° |
| 2026-05-05 14:59 | -18.30288 | -42.65126 | 39223 ft | 521 kts | 34° |
| 2026-05-05 15:00 | -18.25417 | -42.61309 | 39222 ft | 521 kts | 34° |
| 2026-05-05 15:00 | -18.18659 | -42.56018 | 39226 ft | 521 kts | 34° |
| 2026-05-05 15:01 | -18.12844 | -42.51470 | 39224 ft | 521 kts | 34° |
| 2026-05-05 15:01 | -18.07035 | -42.46932 | 39227 ft | 520 kts | 34° |
| 2026-05-05 15:02 | -18.01229 | -42.42400 | 39220 ft | 520 kts | 34° |
| 2026-05-05 15:02 | -17.95429 | -42.37874 | 39223 ft | 519 kts | 34° |
| 2026-05-05 15:03 | -17.89638 | -42.33360 | 39226 ft | 518 kts | 34° |
| 2026-05-05 15:03 | -17.83836 | -42.28842 | 39221 ft | 518 kts | 34° |
| 2026-05-05 15:04 | -17.78091 | -42.24372 | 39221 ft | 518 kts | 34° |
| 2026-05-05 15:04 | -17.72303 | -42.19873 | 39227 ft | 517 kts | 34° |
| 2026-05-05 15:05 | -17.63640 | -42.13143 | 39215 ft | 516 kts | 34° |
| 2026-05-05 15:06 | -17.57868 | -42.08665 | 39218 ft | 517 kts | 34° |
| 2026-05-05 15:06 | -17.52097 | -42.04189 | 39218 ft | 516 kts | 34° |
| 2026-05-05 15:07 | -17.46330 | -41.99721 | 39216 ft | 516 kts | 34° |
| 2026-05-05 15:07 | -17.40560 | -41.95252 | 39216 ft | 516 kts | 34° |
| 2026-05-05 15:08 | -17.34801 | -41.90791 | 39212 ft | 516 kts | 34° |